createdAt,value
2023-02-20T00:01:49.321Z,11.05
2023-02-20T00:04:18.152Z,13.35
2023-02-20T00:06:46.894Z,10.35
2023-02-20T00:09:15.644Z,8.85
2023-02-20T00:11:44.263Z,10.52
2023-02-20T00:14:13.033Z,10.15
2023-02-20T00:16:42.948Z,11.80
2023-02-20T00:19:11.707Z,9.50
2023-02-20T00:21:46.457Z,10.05
2023-02-20T00:24:15.301Z,10.30
2023-02-20T00:26:48.530Z,7.93
2023-02-20T00:29:18.652Z,11.00
2023-02-20T00:31:53.847Z,10.82
2023-02-20T00:34:22.913Z,10.38
2023-02-20T00:36:51.690Z,7.55
2023-02-20T00:39:20.460Z,7.72
2023-02-20T00:41:49.659Z,9.83
2023-02-20T00:44:18.537Z,8.25
2023-02-20T00:46:47.060Z,8.55
2023-02-20T00:49:17.337Z,9.30
2023-02-20T00:51:45.933Z,9.60
2023-02-20T00:54:14.602Z,7.53
2023-02-20T00:56:43.434Z,8.48
2023-02-20T00:59:12.065Z,7.70
2023-02-20T01:01:41.848Z,7.30
2023-02-20T01:04:10.999Z,8.75
2023-02-20T01:06:41.331Z,8.18
2023-02-20T01:09:09.990Z,8.68
2023-02-20T01:11:38.714Z,5.78
2023-02-20T01:14:07.835Z,8.48
2023-02-20T01:16:36.588Z,7.72
2023-02-20T01:19:05.860Z,7.63
2023-02-20T01:21:34.522Z,8.40
2023-02-20T01:24:05.287Z,9.20
2023-02-20T01:26:33.962Z,6.85
2023-02-20T01:29:02.718Z,8.32
2023-02-20T01:31:32.151Z,8.23
2023-02-20T01:34:00.920Z,7.40
2023-02-20T01:36:29.770Z,8.80
2023-02-20T01:38:58.783Z,7.70
2023-02-20T01:41:28.969Z,7.13
2023-02-20T01:43:57.742Z,7.35
2023-02-20T01:46:49.658Z,5.82
2023-02-20T01:49:22.736Z,5.88
2023-02-20T01:51:54.406Z,5.93
2023-02-20T01:54:23.722Z,7.00
2023-02-20T01:56:54.010Z,5.50
2023-02-20T01:59:23.356Z,5.88
2023-02-20T02:01:52.047Z,7.88
2023-02-20T02:04:20.935Z,5.95
2023-02-20T02:06:51.695Z,5.30
2023-02-20T02:09:25.771Z,6.75
2023-02-20T02:11:55.758Z,7.88
2023-02-20T02:14:25.101Z,6.30
2023-02-20T02:17:19.652Z,9.13
2023-02-20T02:20:19.904Z,6.40
2023-02-20T02:23:58.094Z,6.65
2023-02-20T02:26:56.983Z,7.05
2023-02-20T02:29:47.138Z,5.70
2023-02-20T02:32:58.341Z,8.27
2023-02-20T02:35:38.498Z,5.50
2023-02-20T02:38:14.873Z,4.97
2023-02-20T02:40:45.167Z,6.93
2023-02-20T02:43:17.768Z,6.05
2023-02-20T02:45:51.868Z,7.63
2023-02-20T02:48:24.807Z,7.72
2023-02-20T02:50:53.575Z,7.65
2023-02-20T02:53:23.709Z,6.82
2023-02-20T02:55:52.404Z,5.25
2023-02-20T02:58:21.090Z,6.15
2023-02-20T03:00:52.371Z,5.95
2023-02-20T03:03:23.480Z,6.00
2023-02-20T03:05:54.118Z,5.78
2023-02-20T03:08:37.150Z,5.40
2023-02-20T03:11:07.747Z,6.70
2023-02-20T03:13:57.331Z,4.53
2023-02-20T03:16:29.710Z,6.05
2023-02-20T03:18:58.911Z,5.10
2023-02-20T03:21:27.669Z,4.50
2023-02-20T03:24:01.297Z,5.50
2023-02-20T03:26:32.847Z,5.32
2023-02-20T03:29:03.887Z,5.30
2023-02-20T03:31:35.525Z,5.30
2023-02-20T03:34:25.242Z,4.50
2023-02-20T03:37:13.822Z,4.22
2023-02-20T03:40:03.559Z,5.88
2023-02-20T03:42:50.989Z,4.25
2023-02-20T03:45:19.602Z,3.90
2023-02-20T03:47:49.772Z,6.30
2023-02-20T03:50:35.788Z,4.88
2023-02-20T03:53:04.970Z,5.53
2023-02-20T03:55:35.216Z,3.08
2023-02-20T03:58:05.914Z,5.10
2023-02-20T04:00:37.322Z,5.90
2023-02-20T04:03:09.541Z,5.97
2023-02-20T04:05:40.308Z,4.85
2023-02-20T04:08:12.229Z,4.90
2023-02-20T04:10:47.291Z,4.30
2023-02-20T04:13:16.038Z,5.55
2023-02-20T04:15:45.174Z,6.38
2023-02-20T04:18:15.470Z,5.45
2023-02-20T04:20:45.220Z,4.30
2023-02-20T04:23:16.942Z,4.40
2023-02-20T04:25:48.796Z,3.17
2023-02-20T04:28:17.675Z,3.28
2023-02-20T04:30:46.567Z,3.65
2023-02-20T04:33:15.712Z,5.85
2023-02-20T04:35:44.907Z,4.60
2023-02-20T04:38:13.921Z,3.55
2023-02-20T04:40:42.704Z,4.32
2023-02-20T04:43:13.230Z,4.82
2023-02-20T04:45:41.902Z,4.03
2023-02-20T04:48:10.597Z,4.75
2023-02-20T04:50:41.342Z,3.70
2023-02-20T04:53:10.119Z,4.93
2023-02-20T04:55:39.018Z,3.55
2023-02-20T04:58:07.998Z,3.15
2023-02-20T05:00:38.201Z,4.15
2023-02-20T05:03:06.891Z,5.00
2023-02-20T05:05:35.797Z,4.25
2023-02-20T05:08:06.621Z,3.45
2023-02-20T05:10:35.993Z,3.22
2023-02-20T05:13:05.048Z,3.03
2023-02-20T05:15:33.947Z,8.15
2023-02-20T05:18:04.882Z,4.50
2023-02-20T05:20:51.146Z,4.07
2023-02-20T05:23:20.076Z,3.38
2023-02-20T05:25:49.082Z,4.43
2023-02-20T05:28:18.000Z,4.57
2023-02-20T05:30:47.138Z,3.35
2023-02-20T05:33:17.315Z,3.15
2023-02-20T05:35:46.277Z,4.40
2023-02-20T05:38:18.981Z,3.47
2023-02-20T05:40:48.071Z,3.92
2023-02-20T05:43:18.202Z,4.28
2023-02-20T05:45:47.462Z,3.50
2023-02-20T05:48:17.556Z,4.65
2023-02-20T05:50:46.565Z,4.95
2023-02-20T05:53:15.326Z,3.42
2023-02-20T05:55:43.904Z,3.90
2023-02-20T05:58:13.075Z,4.70
2023-02-20T06:00:41.683Z,3.22
2023-02-20T06:03:11.300Z,3.83
2023-02-20T06:05:41.412Z,3.78
2023-02-20T06:08:10.209Z,3.45
2023-02-20T06:10:38.976Z,5.13
2023-02-20T06:13:08.016Z,4.28
2023-02-20T06:15:36.822Z,8.15
2023-02-20T06:18:05.872Z,3.60
2023-02-20T06:20:34.839Z,6.25
2023-02-20T06:23:05.389Z,5.05
2023-02-20T06:25:34.205Z,3.22
2023-02-20T06:28:03.264Z,2.75
2023-02-20T06:30:32.257Z,3.38
2023-02-20T06:33:01.130Z,4.65
2023-02-20T06:35:30.065Z,5.40
2023-02-20T06:37:58.710Z,4.55
2023-02-20T06:40:29.323Z,6.43
2023-02-20T06:42:58.133Z,3.05
2023-02-20T06:45:27.176Z,2.92
2023-02-20T06:47:55.951Z,3.45
2023-02-20T06:50:24.667Z,7.32
2023-02-20T06:52:53.594Z,3.53
2023-02-20T06:55:22.387Z,6.65
2023-02-20T06:57:52.844Z,5.97
2023-02-20T07:00:22.329Z,7.25
2023-02-20T07:02:51.194Z,4.30
2023-02-20T07:05:20.190Z,3.15
2023-02-20T07:07:48.995Z,4.07
2023-02-20T07:10:19.195Z,6.63
2023-02-20T07:12:47.943Z,5.00
2023-02-20T07:15:19.755Z,4.68
2023-02-20T07:17:49.155Z,6.45
2023-02-20T07:20:18.048Z,3.25
2023-02-20T07:22:52.185Z,3.60
2023-02-20T07:25:21.687Z,5.45
2023-02-20T07:27:50.513Z,4.07
2023-02-20T07:30:21.148Z,3.58
2023-02-20T07:32:49.925Z,4.72
2023-02-20T07:35:18.715Z,4.45
2023-02-20T07:37:47.129Z,3.15
2023-02-20T07:40:15.998Z,3.95
2023-02-20T07:42:44.857Z,3.92
2023-02-20T07:45:13.800Z,5.35
2023-02-20T07:47:44.214Z,3.20
2023-02-20T07:50:13.153Z,3.63
2023-02-20T07:52:41.904Z,3.78
2023-02-20T07:55:10.981Z,3.10
2023-02-20T07:57:39.706Z,2.97
2023-02-20T08:00:15.844Z,3.58
2023-02-20T08:02:45.936Z,6.70
2023-02-20T08:05:15.168Z,2.70
2023-02-20T08:07:46.789Z,3.95
2023-02-20T08:10:16.354Z,3.85
2023-02-20T08:12:46.827Z,3.58
2023-02-20T08:15:41.891Z,4.05
2023-02-20T08:18:23.032Z,4.60
2023-02-20T08:20:52.924Z,3.28
2023-02-20T08:23:23.054Z,4.13
2023-02-20T08:25:52.197Z,2.88
2023-02-20T08:28:20.808Z,3.45
2023-02-20T08:30:49.546Z,2.95
2023-02-20T08:33:20.153Z,3.80
2023-02-20T08:35:51.687Z,3.25
2023-02-20T08:38:29.655Z,3.15
2023-02-20T08:40:58.660Z,4.35
2023-02-20T08:43:28.347Z,3.20
2023-02-20T08:45:57.496Z,3.22
2023-02-20T08:48:27.645Z,4.47
2023-02-20T08:50:56.468Z,3.83
2023-02-20T09:02:30.507Z,4.57
2023-02-20T09:05:19.316Z,5.88
2023-02-20T09:07:48.071Z,9.32
2023-02-20T09:10:16.732Z,10.38
2023-02-20T09:12:45.337Z,10.10
2023-02-20T09:15:18.114Z,23.73
2023-02-20T09:17:49.147Z,11.90
2023-02-20T09:20:20.715Z,17.50
2023-02-20T09:22:50.105Z,14.43
2023-02-20T09:25:19.314Z,10.23
2023-02-20T09:27:47.984Z,9.65
2023-02-20T09:30:19.788Z,13.45
2023-02-20T09:32:48.625Z,10.88
2023-02-20T09:35:21.617Z,8.82
2023-02-20T09:37:50.337Z,12.65
2023-02-20T09:40:19.372Z,13.10
2023-02-20T09:43:02.291Z,11.98
2023-02-20T09:45:34.210Z,10.13
2023-02-20T09:48:12.642Z,9.70
2023-02-20T09:50:45.064Z,8.73
2023-02-20T09:53:22.167Z,8.50
2023-02-20T09:55:51.025Z,8.60
2023-02-20T09:58:27.626Z,8.45
2023-02-20T10:00:58.450Z,7.53
2023-02-20T10:03:34.640Z,9.35
2023-02-20T10:06:05.594Z,7.32
2023-02-20T10:08:34.200Z,7.70
2023-02-20T10:11:04.569Z,5.93
2023-02-20T10:13:49.104Z,6.13
2023-02-20T10:16:27.146Z,5.65
2023-02-20T10:19:04.705Z,6.82
2023-02-20T10:21:46.516Z,8.07
2023-02-20T10:24:28.904Z,6.90
2023-02-20T10:27:01.445Z,7.28
2023-02-20T10:29:39.767Z,4.78
2023-02-20T10:32:10.846Z,6.30
2023-02-20T10:34:41.845Z,4.57
2023-02-20T10:37:14.694Z,4.85
2023-02-20T10:39:49.708Z,4.80
2023-02-20T10:42:20.948Z,4.50
2023-02-20T10:44:52.782Z,4.15
2023-02-20T10:47:24.328Z,5.18
2023-02-20T10:49:54.487Z,4.50
2023-02-20T10:52:34.244Z,7.00
2023-02-20T10:55:08.649Z,4.38
2023-02-20T10:57:39.431Z,4.70
2023-02-20T11:00:12.247Z,4.53
2023-02-20T11:02:44.970Z,4.43
2023-02-20T11:05:15.029Z,4.03
2023-02-20T11:07:45.093Z,6.30
2023-02-20T11:10:13.691Z,5.78
2023-02-20T11:12:44.131Z,4.57
2023-02-20T11:15:14.294Z,3.95
2023-02-20T11:17:42.954Z,3.67
2023-02-20T11:20:41.606Z,4.60
2023-02-20T11:23:11.699Z,3.55
2023-02-20T11:25:42.144Z,3.33
2023-02-20T11:28:12.835Z,3.35
2023-02-20T11:30:42.948Z,3.13
2023-02-20T11:33:15.178Z,2.90
2023-02-20T11:35:43.830Z,4.32
2023-02-20T11:38:34.840Z,3.20
2023-02-20T11:41:30.796Z,3.22
2023-02-20T11:44:23.082Z,4.50
2023-02-20T11:47:28.288Z,3.30
2023-02-20T11:50:28.328Z,3.15
2023-02-20T11:52:59.609Z,3.85
2023-02-20T11:55:30.643Z,3.53
2023-02-20T11:57:59.044Z,3.63
2023-02-20T12:00:28.760Z,5.07
2023-02-20T12:02:58.346Z,3.13
2023-02-20T12:05:42.298Z,3.33
2023-02-20T12:08:36.217Z,3.33
2023-02-20T12:11:08.626Z,3.10
2023-02-20T12:13:40.122Z,3.30
2023-02-20T12:16:39.671Z,3.05
2023-02-20T12:19:13.800Z,3.25
2023-02-20T12:21:53.615Z,3.25
2023-02-20T12:24:39.933Z,4.68
2023-02-20T12:27:26.752Z,3.47
2023-02-20T12:29:58.375Z,3.42
2023-02-20T12:32:36.208Z,4.38
2023-02-20T12:35:28.751Z,4.28
2023-02-20T12:38:09.606Z,3.50
2023-02-20T12:40:52.544Z,3.75
2023-02-20T12:43:28.641Z,4.65
2023-02-20T12:46:03.093Z,3.67
2023-02-20T12:48:39.084Z,4.97
2023-02-20T12:51:14.687Z,3.60
2023-02-20T12:54:15.251Z,3.85
2023-02-20T12:57:00.471Z,3.83
2023-02-20T12:59:33.193Z,4.05
2023-02-20T13:02:04.781Z,3.65
2023-02-20T13:04:37.477Z,4.63
2023-02-20T13:07:07.235Z,3.58
2023-02-20T13:09:37.771Z,3.08
2023-02-20T13:12:08.785Z,4.10
2023-02-20T13:14:57.691Z,3.35
2023-02-20T13:17:34.242Z,5.07
2023-02-20T13:20:09.612Z,3.58
2023-02-20T13:22:38.242Z,3.60
2023-02-20T13:25:42.348Z,3.20
2023-02-20T13:28:27.974Z,3.40
2023-02-20T13:31:15.996Z,4.32
2023-02-20T13:33:45.660Z,3.78
2023-02-20T13:36:39.393Z,3.78
2023-02-20T13:39:47.465Z,3.20
2023-02-20T13:42:34.557Z,3.78
2023-02-20T13:45:03.229Z,3.20
2023-02-20T13:47:41.336Z,3.50
2023-02-20T13:50:33.098Z,3.20
2023-02-20T13:53:06.325Z,3.75
2023-02-20T13:55:35.160Z,3.70
2023-02-20T13:58:23.272Z,3.15
2023-02-20T14:00:52.636Z,3.28
2023-02-20T14:03:25.505Z,3.58
2023-02-20T14:06:07.868Z,3.53
2023-02-20T14:08:36.601Z,3.30
2023-02-20T14:11:10.241Z,3.42
2023-02-20T14:13:40.820Z,3.38
2023-02-20T14:16:29.049Z,3.17
2023-02-20T14:19:04.893Z,3.70
2023-02-20T14:21:34.599Z,3.55
2023-02-20T14:24:17.851Z,3.15
2023-02-20T14:26:46.716Z,3.10
2023-02-20T14:29:22.933Z,3.40
2023-02-20T14:31:52.505Z,3.33
2023-02-20T14:34:26.591Z,3.25
2023-02-20T14:37:03.192Z,4.53
2023-02-20T14:39:50.709Z,3.25
2023-02-20T14:42:24.015Z,3.40
2023-02-20T14:44:56.364Z,3.13
2023-02-20T14:47:25.152Z,3.42
2023-02-20T14:49:55.109Z,3.13
2023-02-20T14:52:25.208Z,3.08
2023-02-20T14:55:01.412Z,3.90
2023-02-20T14:57:30.120Z,3.00
2023-02-20T15:00:14.120Z,3.35
2023-02-20T15:02:43.524Z,3.42
2023-02-20T15:05:18.278Z,3.35
2023-02-20T15:07:46.923Z,3.58
2023-02-20T15:10:35.665Z,3.20
2023-02-20T15:13:08.063Z,3.60
2023-02-20T15:15:37.561Z,3.30
2023-02-20T15:18:12.315Z,2.92
2023-02-20T15:20:43.010Z,3.10
2023-02-20T15:23:21.505Z,3.17
2023-02-20T15:25:50.141Z,3.35
2023-02-20T15:28:28.287Z,3.45
2023-02-20T15:31:23.501Z,2.78
2023-02-20T15:33:54.015Z,2.92
2023-02-20T15:36:26.308Z,3.13
2023-02-20T15:38:55.683Z,3.00
2023-02-20T15:41:24.814Z,3.50
2023-02-20T15:43:53.391Z,4.07
2023-02-20T15:46:22.201Z,3.75
2023-02-20T15:48:50.898Z,3.70
2023-02-20T15:51:21.682Z,3.38
2023-02-20T15:53:51.976Z,37.08
2023-02-20T15:56:20.847Z,17.20
2023-02-20T15:58:49.407Z,10.55
2023-02-20T16:01:18.216Z,13.13
2023-02-20T16:03:53.143Z,22.60
2023-02-20T16:06:22.962Z,6.32
2023-02-20T16:08:53.459Z,9.32
2023-02-20T16:11:23.711Z,10.55
2023-02-20T16:13:56.247Z,11.93
2023-02-20T16:16:30.652Z,6.95
2023-02-20T16:18:59.557Z,7.15
2023-02-20T16:21:28.211Z,6.63
2023-02-20T16:23:58.126Z,13.68
2023-02-20T16:26:28.995Z,6.03
2023-02-20T16:28:59.258Z,4.80
2023-02-20T16:32:26.226Z,8.73
2023-02-20T16:34:55.485Z,9.95
2023-02-20T16:37:24.155Z,21.30
2023-02-20T16:39:54.228Z,10.13
2023-02-20T16:42:34.700Z,5.75
2023-02-20T16:45:05.268Z,13.75
2023-02-20T16:47:34.053Z,28.95
2023-02-20T16:50:07.138Z,13.95
2023-02-20T16:52:37.268Z,11.57
2023-02-20T16:55:08.515Z,8.07
2023-02-20T16:57:37.238Z,14.00
2023-02-20T17:00:06.613Z,10.20
2023-02-20T17:02:35.201Z,9.52
2023-02-20T17:05:03.852Z,8.38
2023-02-20T17:07:32.625Z,13.82
2023-02-20T17:10:01.284Z,11.93
2023-02-20T17:12:34.063Z,15.10
2023-02-20T17:15:03.066Z,11.60
2023-02-20T17:17:33.210Z,9.35
2023-02-20T17:20:02.412Z,9.07
2023-02-20T17:22:31.079Z,11.27
2023-02-20T17:24:59.827Z,9.45
2023-02-20T17:27:28.452Z,12.52
2023-02-20T17:29:58.930Z,7.93
2023-02-20T17:32:28.470Z,11.00
2023-02-20T17:34:57.115Z,4.20
2023-02-20T17:37:27.118Z,3.80
2023-02-20T17:39:55.723Z,9.75
2023-02-20T17:42:24.555Z,4.20
2023-02-20T17:44:53.394Z,5.15
2023-02-20T17:47:23.734Z,3.60
2023-02-20T17:49:52.816Z,3.22
2023-02-20T17:52:21.564Z,7.40
2023-02-20T17:54:51.213Z,5.30
2023-02-20T17:57:20.652Z,4.13
2023-02-20T17:59:49.651Z,5.35
2023-02-20T18:02:18.632Z,3.78
2023-02-20T18:04:48.747Z,11.07
2023-02-20T18:07:17.713Z,5.43
2023-02-20T18:09:46.316Z,6.10
2023-02-20T18:12:15.150Z,4.75
2023-02-20T18:14:45.072Z,7.43
2023-02-20T18:17:13.742Z,5.43
2023-02-20T18:19:42.471Z,4.20
2023-02-20T18:22:12.575Z,6.88
2023-02-20T18:24:41.128Z,5.90
2023-02-20T18:27:10.622Z,6.47
2023-02-20T18:29:40.039Z,17.85
2023-02-20T18:32:09.237Z,13.85
2023-02-20T18:34:38.104Z,4.60
2023-02-20T18:37:06.875Z,3.85
2023-02-20T18:39:37.148Z,4.90
2023-02-20T18:42:06.223Z,15.00
2023-02-20T18:44:34.784Z,6.78
2023-02-20T18:47:04.468Z,5.82
2023-02-20T18:49:33.203Z,3.60
2023-02-20T18:52:01.811Z,7.32
2023-02-20T18:54:33.033Z,9.60
2023-02-20T18:57:03.971Z,4.30
2023-02-20T18:59:32.728Z,2.83
2023-02-20T19:02:03.526Z,6.05
2023-02-20T19:04:33.563Z,3.47
2023-02-20T19:07:03.658Z,3.90
2023-02-20T19:09:36.804Z,5.30
2023-02-20T19:12:07.933Z,3.38
2023-02-20T19:14:37.638Z,6.18
2023-02-20T19:17:07.872Z,4.57
2023-02-20T19:19:36.513Z,4.57
2023-02-20T19:22:05.271Z,4.15
2023-02-20T19:24:33.821Z,7.35
2023-02-20T19:27:02.588Z,2.70
2023-02-20T19:29:32.741Z,3.78
2023-02-20T19:32:01.589Z,3.08
2023-02-20T19:34:30.181Z,3.70
2023-02-20T19:36:58.790Z,5.18
2023-02-20T19:39:28.663Z,6.47
2023-02-20T19:41:57.051Z,4.30
2023-02-20T19:44:25.657Z,3.60
2023-02-20T19:46:55.718Z,3.03
2023-02-20T19:49:24.326Z,3.25
2023-02-20T19:51:54.728Z,3.80
2023-02-20T19:54:24.629Z,6.32
2023-02-20T19:56:54.818Z,2.92
2023-02-20T19:59:23.554Z,2.83
2023-02-20T20:01:54.520Z,2.83
2023-02-20T20:04:24.437Z,4.03
2023-02-20T20:06:53.117Z,6.65
2023-02-20T20:09:35.679Z,7.05
2023-02-20T20:12:09.312Z,2.90
2023-02-20T20:14:38.128Z,4.72
2023-02-20T20:17:08.228Z,4.10
2023-02-20T20:19:39.012Z,8.10
2023-02-20T20:22:11.617Z,4.70
2023-02-20T20:24:40.274Z,4.38
2023-02-20T20:27:08.984Z,5.80
2023-02-20T20:29:37.826Z,5.30
2023-02-20T20:32:08.899Z,5.53
2023-02-20T20:34:37.635Z,8.75
2023-02-20T20:37:06.254Z,3.72
2023-02-20T20:39:34.961Z,6.10
2023-02-20T20:42:03.645Z,6.20
2023-02-20T20:44:32.240Z,4.55
2023-02-20T20:47:03.810Z,4.60
2023-02-20T20:49:34.586Z,5.63
2023-02-20T20:52:03.568Z,3.85
2023-02-20T20:54:32.153Z,4.47
2023-02-20T20:57:00.807Z,5.93
2023-02-20T20:59:29.477Z,4.00
2023-02-20T21:01:58.092Z,2.88
2023-02-20T21:04:27.306Z,3.50
2023-02-20T21:06:57.209Z,3.17
2023-02-20T21:09:25.817Z,4.45
2023-02-20T21:11:54.487Z,3.53
2023-02-20T21:14:23.244Z,3.85
2023-02-20T21:16:51.901Z,5.80
2023-02-20T21:19:20.942Z,5.72
2023-02-20T21:21:49.523Z,5.43
2023-02-20T21:24:19.512Z,4.47
2023-02-20T21:26:48.160Z,3.00
2023-02-20T21:29:16.756Z,5.70
2023-02-20T21:31:45.857Z,4.68
2023-02-20T21:34:16.125Z,5.20
2023-02-20T21:36:44.733Z,3.28
2023-02-20T21:39:13.395Z,3.67
2023-02-20T21:42:05.914Z,3.75
2023-02-20T21:44:36.581Z,4.65
2023-02-20T21:47:07.395Z,4.13
2023-02-20T21:49:37.910Z,5.53
2023-02-20T21:52:06.701Z,3.58
2023-02-20T21:54:35.360Z,3.13
2023-02-20T21:57:05.523Z,2.85
2023-02-20T21:59:32.897Z,3.97
2023-02-20T22:02:00.319Z,2.42
2023-02-20T22:04:27.886Z,4.28
2023-02-20T22:07:13.954Z,3.28
2023-02-20T22:09:59.758Z,4.45
2023-02-20T22:12:47.008Z,3.10
2023-02-20T22:15:33.512Z,2.72
2023-02-20T22:18:19.256Z,4.07
2023-02-20T22:21:05.546Z,2.95
2023-02-20T22:23:51.427Z,3.95
2023-02-20T22:26:37.577Z,3.15
2023-02-20T22:29:25.098Z,3.03
2023-02-20T22:32:11.233Z,2.60
2023-02-20T22:35:10.665Z,2.60
2023-02-20T22:37:57.673Z,2.70
2023-02-20T22:40:43.701Z,3.00
2023-02-20T22:43:30.584Z,3.08
2023-02-20T22:46:18.258Z,2.60
2023-02-20T22:49:04.341Z,3.13
2023-02-20T22:51:50.386Z,2.50
2023-02-20T22:54:39.508Z,2.92
2023-02-20T22:57:25.289Z,2.78
2023-02-20T23:00:11.131Z,2.60
2023-02-20T23:02:58.466Z,4.53
2023-02-20T23:05:44.479Z,3.58
2023-02-20T23:08:30.373Z,3.58
2023-02-20T23:11:16.282Z,4.43
2023-02-20T23:14:04.683Z,2.50
2023-02-20T23:16:51.778Z,4.60
2023-02-20T23:19:38.993Z,2.85
2023-02-20T23:22:25.255Z,3.30
2023-02-20T23:25:11.151Z,2.58
2023-02-20T23:27:57.081Z,2.90
2023-02-20T23:30:43.114Z,2.47
2023-02-20T23:33:29.357Z,3.35
2023-02-20T23:36:16.680Z,2.63
2023-02-20T23:39:02.875Z,2.35
2023-02-20T23:41:49.036Z,2.33
2023-02-20T23:44:35.050Z,2.53
2023-02-20T23:47:21.039Z,2.58
2023-02-20T23:50:06.830Z,3.92
2023-02-20T23:52:54.471Z,3.42
2023-02-20T23:55:40.369Z,3.50
2023-02-20T23:58:26.120Z,4.53
